createdAt,value
2019-03-13T00:02:24.270Z,19.20
2019-03-13T00:07:27.802Z,18.98
2019-03-13T00:12:31.394Z,18.79
2019-03-13T00:17:34.910Z,18.64
2019-03-13T00:22:38.476Z,18.65
2019-03-13T00:27:42.042Z,18.46
2019-03-13T00:32:45.598Z,18.34
2019-03-13T00:37:49.203Z,18.28
2019-03-13T00:42:52.759Z,18.28
2019-03-13T00:47:56.323Z,19.00
2019-03-13T00:52:59.915Z,20.11
2019-03-13T00:58:03.440Z,21.36
2019-03-13T01:03:08.585Z,22.12
2019-03-13T01:08:12.190Z,22.48
2019-03-13T01:13:15.727Z,22.53
2019-03-13T01:18:19.287Z,22.33
2019-03-13T01:23:22.858Z,21.90
2019-03-13T01:28:26.425Z,21.90
2019-03-13T01:33:29.986Z,21.49
2019-03-13T01:38:33.549Z,21.00
2019-03-13T01:43:37.141Z,20.69
2019-03-13T01:48:40.666Z,20.13
2019-03-13T01:53:44.229Z,19.65
2019-03-13T01:58:48.310Z,19.35
2019-03-13T02:03:51.859Z,19.13
2019-03-13T02:08:55.410Z,18.95
2019-03-13T02:13:58.935Z,18.68
2019-03-13T02:19:02.472Z,18.60
2019-03-13T02:24:06.032Z,18.57
2019-03-13T02:29:09.593Z,18.36
2019-03-13T02:34:13.276Z,18.31
2019-03-13T02:39:16.779Z,18.46
2019-03-13T02:44:20.325Z,19.44
2019-03-13T02:49:23.922Z,20.16
2019-03-13T02:54:27.471Z,20.05
2019-03-13T02:59:30.967Z,20.34
2019-03-13T03:04:34.537Z,20.83
2019-03-13T03:09:38.072Z,21.32
2019-03-13T03:14:44.752Z,22.03
2019-03-13T03:19:48.306Z,22.55
2019-03-13T03:24:51.966Z,22.48
2019-03-13T03:29:55.513Z,22.23
2019-03-13T03:34:59.056Z,22.26
2019-03-13T03:40:02.745Z,22.04
2019-03-13T03:45:08.291Z,21.51
2019-03-13T03:50:14.375Z,21.37
2019-03-13T03:55:17.933Z,21.38
2019-03-13T04:00:21.564Z,21.71
2019-03-13T04:05:25.098Z,22.80
2019-03-13T04:10:28.665Z,22.49
2019-03-13T04:15:32.219Z,23.30
2019-03-13T04:20:35.771Z,23.30
2019-03-13T04:25:39.366Z,23.01
2019-03-13T04:30:42.888Z,22.95
2019-03-13T04:35:46.449Z,22.67
2019-03-13T04:40:49.988Z,22.56
2019-03-13T04:45:53.638Z,22.17
2019-03-13T04:50:57.160Z,22.27
2019-03-13T04:56:00.700Z,22.08
2019-03-13T05:01:05.468Z,21.77
2019-03-13T05:06:12.422Z,20.93
2019-03-13T05:11:15.957Z,21.05
2019-03-13T05:16:19.490Z,20.74
2019-03-13T05:21:23.032Z,20.52
2019-03-13T05:26:26.603Z,20.29
2019-03-13T05:31:30.243Z,19.96
2019-03-13T05:36:33.833Z,19.66
2019-03-13T05:41:37.364Z,19.31
2019-03-13T05:46:40.924Z,19.33
2019-03-13T05:51:44.450Z,20.13
2019-03-13T05:56:48.025Z,20.78
2019-03-13T06:01:51.703Z,21.55
2019-03-13T06:06:55.219Z,22.17
2019-03-13T06:11:58.801Z,23.05
2019-03-13T06:17:02.318Z,23.27
2019-03-13T06:22:05.879Z,23.32
2019-03-13T06:27:09.450Z,23.47
2019-03-13T06:32:13.131Z,23.85
2019-03-13T06:37:16.649Z,24.18
2019-03-13T06:42:20.187Z,24.89
2019-03-13T06:47:25.014Z,24.59
2019-03-13T06:52:31.525Z,24.51
2019-03-13T06:57:34.113Z,24.09
2019-03-13T07:02:41.919Z,23.79
2019-03-13T07:07:55.903Z,23.56
2019-03-13T07:13:15.836Z,23.12
2019-03-13T07:18:23.966Z,22.41
2019-03-13T07:23:43.911Z,22.15
2019-03-13T07:28:52.321Z,21.84
2019-03-13T07:34:12.051Z,21.48
2019-03-13T07:39:19.982Z,21.13
2019-03-13T07:44:25.244Z,20.89
2019-03-13T07:49:46.589Z,20.80
2019-03-13T07:54:51.708Z,20.68
2019-03-13T08:00:02.541Z,20.96
2019-03-13T08:05:10.729Z,21.09
2019-03-13T08:10:31.905Z,21.64
2019-03-13T08:15:39.730Z,22.46
2019-03-13T08:21:00.858Z,23.16
2019-03-13T08:26:09.224Z,23.59
2019-03-13T08:31:23.115Z,23.71
2019-03-13T08:36:44.221Z,23.41
2019-03-13T08:42:05.343Z,23.20
2019-03-13T08:47:13.204Z,23.10
2019-03-13T08:52:24.023Z,22.99
2019-03-13T08:57:29.137Z,23.11
2019-03-13T09:02:37.278Z,23.06
2019-03-13T09:08:00.579Z,22.76
2019-03-13T09:13:06.686Z,22.28
2019-03-13T09:18:14.797Z,22.09
2019-03-13T09:23:31.498Z,22.21
2019-03-13T09:28:36.602Z,22.05
2019-03-13T09:33:50.715Z,21.91
2019-03-13T09:39:04.927Z,21.64
2019-03-13T09:44:10.089Z,21.59
2019-03-13T09:49:21.019Z,21.41
2019-03-13T09:54:28.953Z,21.27
2019-03-13T09:59:43.913Z,21.24
2019-03-13T10:05:05.256Z,21.18
2019-03-13T10:10:13.767Z,21.23
2019-03-13T10:15:19.033Z,21.19
2019-03-13T10:20:30.033Z,21.16
2019-03-13T10:25:41.179Z,20.99
2019-03-13T10:31:04.391Z,20.86
2019-03-13T10:36:09.479Z,20.64
2019-03-13T10:41:17.565Z,20.51
2019-03-13T10:46:28.664Z,20.39
2019-03-13T10:51:39.259Z,20.32
2019-03-13T10:56:50.128Z,20.25
2019-03-13T11:01:55.231Z,20.05
2019-03-13T11:07:09.250Z,20.05
2019-03-13T11:12:20.233Z,20.07
2019-03-13T11:17:28.338Z,20.01
2019-03-13T11:22:33.445Z,19.97
2019-03-13T11:27:47.711Z,20.20
2019-03-13T11:32:52.822Z,20.48
2019-03-13T11:37:57.954Z,21.00
2019-03-13T11:43:21.276Z,21.79
2019-03-13T11:48:29.520Z,22.66
2019-03-13T11:53:34.581Z,22.76
2019-03-13T11:58:39.718Z,22.86
2019-03-13T12:03:47.279Z,22.62
2019-03-13T12:09:10.245Z,22.61
2019-03-13T12:14:21.279Z,22.88
2019-03-13T12:19:26.403Z,23.71
2019-03-13T12:24:40.524Z,23.71
2019-03-13T12:29:57.495Z,23.76
2019-03-13T12:35:14.526Z,23.49
2019-03-13T12:40:37.533Z,23.17
2019-03-13T12:45:57.813Z,23.22
2019-03-13T12:51:05.892Z,23.01
2019-03-13T12:56:16.939Z,22.82
2019-03-13T13:01:22.022Z,22.59
2019-03-13T13:06:27.162Z,22.23
2019-03-13T13:11:32.268Z,21.99
2019-03-13T13:16:40.150Z,22.07
2019-03-13T13:21:43.696Z,22.06
2019-03-13T13:26:50.023Z,22.42
2019-03-13T13:31:55.235Z,22.92
2019-03-13T13:36:57.837Z,23.48
2019-03-13T13:42:01.375Z,23.87
2019-03-13T13:47:05.094Z,24.09
2019-03-13T13:52:08.646Z,22.97
2019-03-13T13:57:12.374Z,22.70
2019-03-13T14:02:15.946Z,22.32
2019-03-13T14:07:19.465Z,22.16
2019-03-13T14:12:23.594Z,22.07
2019-03-13T14:17:27.114Z,22.05
2019-03-13T14:22:30.696Z,21.93
2019-03-13T14:27:34.241Z,21.87
2019-03-13T14:32:37.779Z,21.82
2019-03-13T14:37:41.322Z,21.72
2019-03-13T14:42:44.862Z,21.63
2019-03-13T14:47:48.455Z,21.65
2019-03-13T14:52:51.999Z,21.78
2019-03-13T14:57:55.541Z,22.09
2019-03-13T15:02:59.121Z,22.28
2019-03-13T15:08:02.681Z,22.50
2019-03-13T15:13:06.244Z,23.26
2019-03-13T15:18:09.843Z,22.90
2019-03-13T15:23:13.420Z,23.09
2019-03-13T15:28:17.590Z,22.77
2019-03-13T15:33:21.605Z,22.76
2019-03-13T15:38:25.154Z,22.57
2019-03-13T15:43:28.695Z,22.42
2019-03-13T15:48:33.724Z,22.28
2019-03-13T15:53:37.272Z,22.17
2019-03-13T15:58:40.814Z,22.00
2019-03-13T16:03:44.410Z,21.87
2019-03-13T16:08:48.102Z,21.70
2019-03-13T16:13:51.643Z,21.52
2019-03-13T16:18:55.237Z,21.32
2019-03-13T16:23:58.830Z,21.19
2019-03-13T16:29:02.344Z,21.07
2019-03-13T16:34:05.916Z,21.08
2019-03-13T16:39:09.486Z,21.42
2019-03-13T16:44:13.087Z,21.81
2019-03-13T16:49:16.666Z,22.34
2019-03-13T16:54:20.194Z,22.89
2019-03-13T16:59:23.754Z,23.80
2019-03-13T17:04:27.319Z,23.80
2019-03-13T17:09:30.911Z,24.03
2019-03-13T17:14:34.872Z,23.88
2019-03-13T17:19:38.890Z,23.39
2019-03-13T17:24:42.803Z,23.01
2019-03-13T17:29:46.903Z,22.50
2019-03-13T17:34:50.461Z,23.15
2019-03-13T17:39:54.040Z,22.16
2019-03-13T17:44:57.722Z,21.89
2019-03-13T17:50:01.678Z,21.65
2019-03-13T17:55:07.074Z,21.42
2019-03-13T18:00:22.252Z,21.28
2019-03-13T18:05:25.795Z,21.62
2019-03-13T18:10:29.556Z,21.85
2019-03-13T18:15:33.236Z,22.31
2019-03-13T18:20:36.836Z,22.67
2019-03-13T18:25:40.610Z,22.99
2019-03-13T18:30:44.999Z,23.17
2019-03-13T18:35:48.707Z,22.86
2019-03-13T18:40:52.295Z,22.63
2019-03-13T18:45:55.890Z,22.29
2019-03-13T18:51:00.953Z,22.07
2019-03-13T18:56:04.955Z,21.79
2019-03-13T19:01:08.566Z,21.45
2019-03-13T19:06:12.106Z,21.22
2019-03-13T19:11:15.891Z,20.92
2019-03-13T19:16:19.459Z,20.65
2019-03-13T19:21:23.236Z,20.44
2019-03-13T19:26:26.802Z,20.28
2019-03-13T19:31:30.345Z,20.10
2019-03-13T19:36:33.991Z,19.89
2019-03-13T19:41:37.632Z,19.77
2019-03-13T19:46:41.167Z,19.68
2019-03-13T19:51:44.744Z,19.68
2019-03-13T19:56:48.325Z,19.64
2019-03-13T20:01:51.883Z,19.59
2019-03-13T20:06:55.478Z,19.52
2019-03-13T20:11:59.059Z,19.46
2019-03-13T20:17:02.592Z,19.39
2019-03-13T20:22:06.189Z,19.32
2019-03-13T20:27:09.808Z,19.28
2019-03-13T20:32:13.380Z,19.22
2019-03-13T20:37:16.994Z,19.18
2019-03-13T20:42:20.577Z,19.10
2019-03-13T20:47:24.141Z,19.12
2019-03-13T20:52:27.716Z,19.07
2019-03-13T20:57:31.301Z,19.06
2019-03-13T21:02:34.849Z,19.09
2019-03-13T21:07:38.401Z,19.68
2019-03-13T21:12:41.975Z,20.70
2019-03-13T21:17:45.546Z,21.63
2019-03-13T21:22:49.186Z,22.77
2019-03-13T21:27:52.727Z,23.46
2019-03-13T21:32:56.400Z,23.09
2019-03-13T21:37:59.968Z,23.13
2019-03-13T21:43:03.527Z,22.81
2019-03-13T21:48:07.072Z,22.65
2019-03-13T21:53:10.630Z,22.04
2019-03-13T21:58:14.173Z,21.83
2019-03-13T22:03:28.062Z,21.77
2019-03-13T22:08:22.989Z,21.32
2019-03-13T22:13:26.518Z,20.94
2019-03-13T22:18:30.092Z,20.55
2019-03-13T22:23:33.694Z,20.28
2019-03-13T22:28:37.218Z,19.95
2019-03-13T22:33:40.758Z,19.76
2019-03-13T22:38:44.345Z,19.56
2019-03-13T22:43:47.887Z,19.42
2019-03-13T22:48:58.013Z,19.33
2019-03-13T22:53:56.722Z,19.29
2019-03-13T22:59:00.318Z,19.17
2019-03-13T23:04:03.952Z,19.12
2019-03-13T23:09:09.638Z,19.03
2019-03-13T23:14:13.172Z,18.95
2019-03-13T23:19:17.663Z,18.93
2019-03-13T23:24:21.450Z,18.88
2019-03-13T23:29:25.009Z,18.85
2019-03-13T23:34:28.922Z,19.70
2019-03-13T23:39:32.462Z,20.82
2019-03-13T23:44:36.028Z,21.73
2019-03-13T23:49:39.568Z,22.42
2019-03-13T23:54:43.132Z,22.62
2019-03-13T23:59:46.664Z,22.39
